<?xml version="1.0" encoding="UTF-8" standalone="no" ?>
<gpx xmlns="http://www.topografix.com/GPX/1/1" xmlns:xsi="http://www.w3.org/2001/XMLSchema-instance" xsi:schemaLocation="http://www.topografix.com/GPX/1/1 http://www.topografix.com/GPX/1/1/gpx.xsd" version="1.1" creator="VisuGPX - https://www.visugpx.com">
  <metadata>
    <name>Le tour de la Jemaye</name>
    <desc><![CDATA[Petite balade facile autour d\\\'un très bel endroit. A conseiller, le restau du lac, c\\\'est cool et on y mange bien.
]]></desc>
  </metadata>
  <trk>
    <name><![CDATA[2011/12/01 12:02:36]]></name>
    <trkseg>
      <trkpt lat="45.15818" lon="0.28245">
        <ele>-0.15567089711374</ele>
        <time>2011-12-01 11:02:36</time>
      </trkpt>
      <trkpt lat="45.1582" lon="0.28243">
        <ele>-0.86374729097668</ele>
        <time>2011-12-01 11:02:37</time>
      </trkpt>
      <trkpt lat="45.15808" lon="0.28194">
        <ele>-1.0426173057383</ele>
        <time>2011-12-01 11:03:05</time>
      </trkpt>
      <trkpt lat="45.15819" lon="0.28142">
        <ele>-1.1437843576134</ele>
        <time>2011-12-01 11:03:25</time>
      </trkpt>
      <trkpt lat="45.15832" lon="0.28092">
        <ele>-1.240561585477</ele>
        <time>2011-12-01 11:03:51</time>
      </trkpt>
      <trkpt lat="45.15817" lon="0.28044">
        <ele>-0.71097383822348</ele>
        <time>2011-12-01 11:04:21</time>
      </trkpt>
      <trkpt lat="45.15782" lon="0.28033">
        <ele>-0.84933893225173</ele>
        <time>2011-12-01 11:05:37</time>
      </trkpt>
      <trkpt lat="45.15744" lon="0.28038">
        <ele>-0.23757353582244</ele>
        <time>2011-12-01 11:05:55</time>
      </trkpt>
      <trkpt lat="45.15707" lon="0.28036">
        <ele>-0.36347885616328</ele>
        <time>2011-12-01 11:06:05</time>
      </trkpt>
      <trkpt lat="45.1567" lon="0.28027">
        <ele>-1.2055619450699</ele>
        <time>2011-12-01 11:06:17</time>
      </trkpt>
      <trkpt lat="45.15631" lon="0.28016">
        <ele>-0.64671134705873</ele>
        <time>2011-12-01 11:06:28</time>
      </trkpt>
      <trkpt lat="45.15599" lon="0.28048">
        <ele>-0.65808561345102</ele>
        <time>2011-12-01 11:06:39</time>
      </trkpt>
      <trkpt lat="45.15564" lon="0.28068">
        <ele>-0.70730358063713</ele>
        <time>2011-12-01 11:06:49</time>
      </trkpt>
      <trkpt lat="45.15526" lon="0.28077">
        <ele>-0.087878054658177</ele>
        <time>2011-12-01 11:06:58</time>
      </trkpt>
      <trkpt lat="45.15495" lon="0.28104">
        <ele>-0.81082185155083</ele>
        <time>2011-12-01 11:07:10</time>
      </trkpt>
      <trkpt lat="45.15495" lon="0.28155">
        <ele>-0.68086771192884</ele>
        <time>2011-12-01 11:07:32</time>
      </trkpt>
      <trkpt lat="45.15491" lon="0.28207">
        <ele>-0.54899562456296</ele>
        <time>2011-12-01 11:07:47</time>
      </trkpt>
      <trkpt lat="45.15498" lon="0.28258">
        <ele>-1.0951481729691</ele>
        <time>2011-12-01 11:08:07</time>
      </trkpt>
      <trkpt lat="45.15517" lon="0.28302">
        <ele>-0.21040500651657</ele>
        <time>2011-12-01 11:08:35</time>
      </trkpt>
      <trkpt lat="45.15555" lon="0.28302">
        <ele>-0.80595150496697</ele>
        <time>2011-12-01 11:08:57</time>
      </trkpt>
      <trkpt lat="45.15574" lon="0.28347">
        <ele>-1.3314622827535</ele>
        <time>2011-12-01 11:09:13</time>
      </trkpt>
      <trkpt lat="45.15607" lon="0.2837">
        <ele>-1.1643641265202</ele>
        <time>2011-12-01 11:09:36</time>
      </trkpt>
      <trkpt lat="45.15647" lon="0.28361">
        <ele>-0.36066945850405</ele>
        <time>2011-12-01 11:09:44</time>
      </trkpt>
      <trkpt lat="45.15689" lon="0.28346">
        <ele>-0.97932967109727</ele>
        <time>2011-12-01 11:09:50</time>
      </trkpt>
      <trkpt lat="45.15728" lon="0.28327">
        <ele>-0.21106063420928</ele>
        <time>2011-12-01 11:09:55</time>
      </trkpt>
      <trkpt lat="45.15765" lon="0.28339">
        <ele>-0.76711666476365</ele>
        <time>2011-12-01 11:10:00</time>
      </trkpt>
      <trkpt lat="45.158" lon="0.28322">
        <ele>-0.71087030305228</ele>
        <time>2011-12-01 11:10:29</time>
      </trkpt>
      <trkpt lat="45.15814" lon="0.28273">
        <ele>-0.79822716308217</ele>
        <time>2011-12-01 11:10:43</time>
      </trkpt>
      <trkpt lat="45.15809" lon="0.28221">
        <ele>-0.25425051216757</ele>
        <time>2011-12-01 11:10:59</time>
      </trkpt>
      <trkpt lat="45.15812" lon="0.28168">
        <ele>-0.38607886818102</ele>
        <time>2011-12-01 11:11:18</time>
      </trkpt>
      <trkpt lat="45.15824" lon="0.28118">
        <ele>-0.48514003663752</ele>
        <time>2011-12-01 11:11:37</time>
      </trkpt>
      <trkpt lat="45.1583" lon="0.28065">
        <ele>-0.61615432413953</ele>
        <time>2011-12-01 11:11:51</time>
      </trkpt>
      <trkpt lat="45.15796" lon="0.28045">
        <ele>-0.77059036397725</ele>
        <time>2011-12-01 11:12:04</time>
      </trkpt>
      <trkpt lat="45.15759" lon="0.28042">
        <ele>-0.89686478083763</ele>
        <time>2011-12-01 11:12:33</time>
      </trkpt>
      <trkpt lat="45.15721" lon="0.28047">
        <ele>-0.9912989851199</ele>
        <time>2011-12-01 11:13:11</time>
      </trkpt>
      <trkpt lat="45.15679" lon="0.28043">
        <ele>-0.42302657894072</ele>
        <time>2011-12-01 11:13:19</time>
      </trkpt>
      <trkpt lat="45.15645" lon="0.28028">
        <ele>-0.56838042688764</ele>
        <time>2011-12-01 11:13:27</time>
      </trkpt>
      <trkpt lat="45.15609" lon="0.28038">
        <ele>-1.3600507260114</ele>
        <time>2011-12-01 11:13:40</time>
      </trkpt>
      <trkpt lat="45.15579" lon="0.28068">
        <ele>-0.66679875742102</ele>
        <time>2011-12-01 11:13:52</time>
      </trkpt>
      <trkpt lat="45.15541" lon="0.28079">
        <ele>-0.033638967497609</ele>
        <time>2011-12-01 11:14:05</time>
      </trkpt>
      <trkpt lat="45.15507" lon="0.28097">
        <ele>-0.096183276860757</ele>
        <time>2011-12-01 11:14:17</time>
      </trkpt>
      <trkpt lat="45.15477" lon="0.28068">
        <ele>-0.96867199048586</ele>
        <time>2011-12-01 11:14:36</time>
      </trkpt>
      <trkpt lat="45.15461" lon="0.28022">
        <ele>-1.1404066668187</ele>
        <time>2011-12-01 11:14:53</time>
      </trkpt>
      <trkpt lat="45.15424" lon="0.28041">
        <ele>-0.49424842787664</ele>
        <time>2011-12-01 11:15:07</time>
      </trkpt>
      <trkpt lat="45.15396" lon="0.28076">
        <ele>-0.47844129765917</ele>
        <time>2011-12-01 11:15:19</time>
      </trkpt>
      <trkpt lat="45.15373" lon="0.28115">
        <ele>-0.44631371989192</ele>
        <time>2011-12-01 11:15:29</time>
      </trkpt>
      <trkpt lat="45.15344" lon="0.28147">
        <ele>-0.4460117486542</ele>
        <time>2011-12-01 11:15:41</time>
      </trkpt>
      <trkpt lat="45.1531" lon="0.28118">
        <ele>-0.62128903591975</ele>
        <time>2011-12-01 11:15:58</time>
      </trkpt>
      <trkpt lat="45.15275" lon="0.28102">
        <ele>-0.76426168681712</ele>
        <time>2011-12-01 11:16:15</time>
      </trkpt>
      <trkpt lat="45.1525" lon="0.28065">
        <ele>-0.94113752681665</ele>
        <time>2011-12-01 11:16:28</time>
      </trkpt>
      <trkpt lat="45.15226" lon="0.28024">
        <ele>-0.41750559650598</ele>
        <time>2011-12-01 11:16:42</time>
      </trkpt>
      <trkpt lat="45.1519" lon="0.28015">
        <ele>-0.54979271939521</ele>
        <time>2011-12-01 11:16:59</time>
      </trkpt>
      <trkpt lat="45.15151" lon="0.28023">
        <ele>-0.64581937239746</ele>
        <time>2011-12-01 11:17:15</time>
      </trkpt>
      <trkpt lat="45.15114" lon="0.28023">
        <ele>-0.75366154173366</ele>
        <time>2011-12-01 11:17:30</time>
      </trkpt>
      <trkpt lat="45.15076" lon="0.28027">
        <ele>-0.85316112880855</ele>
        <time>2011-12-01 11:17:47</time>
      </trkpt>
      <trkpt lat="45.15037" lon="0.28023">
        <ele>-0.97627456641806</ele>
        <time>2011-12-01 11:18:00</time>
      </trkpt>
      <trkpt lat="45.15001" lon="0.28032">
        <ele>-0.35306099256104</ele>
        <time>2011-12-01 11:18:12</time>
      </trkpt>
      <trkpt lat="45.14979" lon="0.28077">
        <ele>-0.99797231824903</ele>
        <time>2011-12-01 11:18:24</time>
      </trkpt>
      <trkpt lat="45.14948" lon="0.28102">
        <ele>-0.30901653270303</ele>
        <time>2011-12-01 11:18:36</time>
      </trkpt>
      <trkpt lat="45.14925" lon="0.28142">
        <ele>-0.97912783198785</ele>
        <time>2011-12-01 11:18:49</time>
      </trkpt>
      <trkpt lat="45.14893" lon="0.28168">
        <ele>-0.28974435317878</ele>
        <time>2011-12-01 11:19:02</time>
      </trkpt>
      <trkpt lat="45.14858" lon="0.28159">
        <ele>-0.41980851549124</ele>
        <time>2011-12-01 11:19:14</time>
      </trkpt>
      <trkpt lat="45.14823" lon="0.28137">
        <ele>-0.57975396022971</ele>
        <time>2011-12-01 11:19:27</time>
      </trkpt>
      <trkpt lat="45.14789" lon="0.28119">
        <ele>-0.72356678435824</ele>
        <time>2011-12-01 11:19:42</time>
      </trkpt>
      <trkpt lat="45.14751" lon="0.28114">
        <ele>-0.84663147961021</ele>
        <time>2011-12-01 11:19:56</time>
      </trkpt>
      <trkpt lat="45.14729" lon="0.28073">
        <ele>-1.0175228142256</ele>
        <time>2011-12-01 11:20:10</time>
      </trkpt>
      <trkpt lat="45.14712" lon="0.28026">
        <ele>-1.1986326767847</ele>
        <time>2011-12-01 11:20:26</time>
      </trkpt>
      <trkpt lat="45.14693" lon="0.2798">
        <ele>-1.3774318906271</ele>
        <time>2011-12-01 11:20:43</time>
      </trkpt>
      <trkpt lat="45.14697" lon="0.27929">
        <ele>-0.79113150633077</ele>
        <time>2011-12-01 11:21:58</time>
      </trkpt>
      <trkpt lat="45.1473" lon="0.27905">
        <ele>-0.76334934911199</ele>
        <time>2011-12-01 11:22:16</time>
      </trkpt>
      <trkpt lat="45.14762" lon="0.27877">
        <ele>-0.044662701783181</ele>
        <time>2011-12-01 11:22:32</time>
      </trkpt>
      <trkpt lat="45.14797" lon="0.27849">
        <ele>-0.72888474865942</ele>
        <time>2011-12-01 11:22:44</time>
      </trkpt>
      <trkpt lat="45.14829" lon="0.27825">
        <ele>-0.70028448668563</ele>
        <time>2011-12-01 11:22:50</time>
      </trkpt>
      <trkpt lat="45.14864" lon="0.278">
        <ele>-0.66384871853427</ele>
        <time>2011-12-01 11:22:57</time>
      </trkpt>
      <trkpt lat="45.14896" lon="0.27775">
        <ele>-0.63675888358557</ele>
        <time>2011-12-01 11:23:11</time>
      </trkpt>
      <trkpt lat="45.14932" lon="0.27752">
        <ele>-0.5957973966398</ele>
        <time>2011-12-01 11:23:22</time>
      </trkpt>
      <trkpt lat="45.14966" lon="0.27728">
        <ele>-0.56631869091916</ele>
        <time>2011-12-01 11:23:31</time>
      </trkpt>
      <trkpt lat="45.15001" lon="0.27704">
        <ele>-0.52676948791816</ele>
        <time>2011-12-01 11:23:42</time>
      </trkpt>
      <trkpt lat="45.15026" lon="0.27667">
        <ele>-1.2620412049101</ele>
        <time>2011-12-01 11:23:50</time>
      </trkpt>
      <trkpt lat="45.15045" lon="0.27624">
        <ele>-0.61390286364701</ele>
        <time>2011-12-01 11:24:00</time>
      </trkpt>
      <trkpt lat="45.15062" lon="0.27577">
        <ele>-0.68763409099006</ele>
        <time>2011-12-01 11:24:10</time>
      </trkpt>
      <trkpt lat="45.15079" lon="0.27526">
        <ele>-0.77693503980936</ele>
        <time>2011-12-01 11:24:21</time>
      </trkpt>
      <trkpt lat="45.15104" lon="0.27485">
        <ele>-0.10669750362138</ele>
        <time>2011-12-01 11:24:30</time>
      </trkpt>
      <trkpt lat="45.15117" lon="0.27436">
        <ele>-0.90778006832454</ele>
        <time>2011-12-01 11:24:40</time>
      </trkpt>
      <trkpt lat="45.15128" lon="0.27383">
        <ele>-0.31370983340139</ele>
        <time>2011-12-01 11:24:52</time>
      </trkpt>
      <trkpt lat="45.15146" lon="0.27337">
        <ele>-0.37475573951349</ele>
        <time>2011-12-01 11:25:05</time>
      </trkpt>
      <trkpt lat="45.15161" lon="0.2729">
        <ele>-1.1635421134008</ele>
        <time>2011-12-01 11:25:19</time>
      </trkpt>
      <trkpt lat="45.15174" lon="0.27241">
        <ele>-0.55324408275919</ele>
        <time>2011-12-01 11:25:37</time>
      </trkpt>
      <trkpt lat="45.15191" lon="0.27195">
        <ele>-0.62358621023623</ele>
        <time>2011-12-01 11:30:22</time>
      </trkpt>
      <trkpt lat="45.15205" lon="0.27146">
        <ele>-0.70944836602666</ele>
        <time>2011-12-01 11:30:33</time>
      </trkpt>
      <trkpt lat="45.15218" lon="0.27097">
        <ele>-0.80301663244347</ele>
        <time>2011-12-01 11:31:06</time>
      </trkpt>
      <trkpt lat="45.15255" lon="0.27085">
        <ele>-0.7237403797335</ele>
        <time>2011-12-01 11:31:19</time>
      </trkpt>
      <trkpt lat="45.15294" lon="0.27089">
        <ele>-0.59918368132492</ele>
        <time>2011-12-01 11:31:28</time>
      </trkpt>
      <trkpt lat="45.15333" lon="0.27085">
        <ele>-1.2021657124512</ele>
        <time>2011-12-01 11:31:38</time>
      </trkpt>
      <trkpt lat="45.15371" lon="0.27062">
        <ele>-0.44109539831447</ele>
        <time>2011-12-01 11:31:48</time>
      </trkpt>
      <trkpt lat="45.15408" lon="0.27036">
        <ele>-0.40171390419346</ele>
        <time>2011-12-01 11:31:55</time>
      </trkpt>
      <trkpt lat="45.15442" lon="0.27009">
        <ele>-0.36217804442583</ele>
        <time>2011-12-01 11:32:01</time>
      </trkpt>
      <trkpt lat="45.15476" lon="0.26985">
        <ele>-1.0346576200444</ele>
        <time>2011-12-01 11:32:07</time>
      </trkpt>
      <trkpt lat="45.15511" lon="0.26961">
        <ele>-0.28435803089212</ele>
        <time>2011-12-01 11:32:13</time>
      </trkpt>
      <trkpt lat="45.15546" lon="0.26944">
        <ele>-0.93672193638247</ele>
        <time>2011-12-01 11:32:18</time>
      </trkpt>
      <trkpt lat="45.15584" lon="0.26936">
        <ele>-0.83733305356725</ele>
        <time>2011-12-01 11:32:23</time>
      </trkpt>
      <trkpt lat="45.15625" lon="0.26944">
        <ele>-0.69456538013992</ele>
        <time>2011-12-01 11:32:29</time>
      </trkpt>
      <trkpt lat="45.1566" lon="0.26934">
        <ele>-0.60853262015416</ele>
        <time>2011-12-01 11:32:38</time>
      </trkpt>
      <trkpt lat="45.15694" lon="0.26952">
        <ele>-1.1665235462623</ele>
        <time>2011-12-01 11:32:48</time>
      </trkpt>
      <trkpt lat="45.15731" lon="0.26965">
        <ele>-1.0253765029821</ele>
        <time>2011-12-01 11:32:57</time>
      </trkpt>
      <trkpt lat="45.15765" lon="0.26993">
        <ele>-0.14494723270639</ele>
        <time>2011-12-01 11:33:05</time>
      </trkpt>
      <trkpt lat="45.15794" lon="0.27022">
        <ele>-0.68519545079425</ele>
        <time>2011-12-01 11:33:11</time>
      </trkpt>
      <trkpt lat="45.15828" lon="0.27054">
        <ele>-1.2012108855665</ele>
        <time>2011-12-01 11:33:18</time>
      </trkpt>
      <trkpt lat="45.1586" lon="0.2708">
        <ele>-1.0402724922551</ele>
        <time>2011-12-01 11:33:24</time>
      </trkpt>
      <trkpt lat="45.15887" lon="0.27121">
        <ele>-0.14025584172043</ele>
        <time>2011-12-01 11:33:30</time>
      </trkpt>
      <trkpt lat="45.15922" lon="0.27144">
        <ele>-0.67876781128871</ele>
        <time>2011-12-01 11:33:41</time>
      </trkpt>
      <trkpt lat="45.15952" lon="0.27174">
        <ele>-1.2158993612178</ele>
        <time>2011-12-01 11:33:52</time>
      </trkpt>
      <trkpt lat="45.15971" lon="0.27218">
        <ele>-1.0385051577515</ele>
        <time>2011-12-01 11:34:02</time>
      </trkpt>
      <trkpt lat="45.15988" lon="0.27265">
        <ele>-0.1490768798684</ele>
        <time>2011-12-01 11:34:13</time>
      </trkpt>
      <trkpt lat="45.15991" lon="0.27316">
        <ele>-0.7175085441562</ele>
        <time>2011-12-01 11:34:24</time>
      </trkpt>
      <trkpt lat="45.15993" lon="0.27367">
        <ele>-0.56980378643993</ele>
        <time>2011-12-01 11:34:32</time>
      </trkpt>
      <trkpt lat="45.15994" lon="0.2742">
        <ele>-1.1344125031557</ele>
        <time>2011-12-01 11:34:39</time>
      </trkpt>
      <trkpt lat="45.16008" lon="0.27476">
        <ele>-0.24078417066596</ele>
        <time>2011-12-01 11:34:45</time>
      </trkpt>
      <trkpt lat="45.15999" lon="0.2753">
        <ele>-0.11998467794035</ele>
        <time>2011-12-01 11:34:52</time>
      </trkpt>
      <trkpt lat="45.16" lon="0.2758">
        <ele>-0.68807043867423</ele>
        <time>2011-12-01 11:35:50</time>
      </trkpt>
      <trkpt lat="45.16006" lon="0.27633">
        <ele>-0.53697611835696</ele>
        <time>2011-12-01 11:36:14</time>
      </trkpt>
      <trkpt lat="45.16014" lon="0.27685">
        <ele>-1.0720639177</ele>
        <time>2011-12-01 11:36:24</time>
      </trkpt>
      <trkpt lat="45.16018" lon="0.27738">
        <ele>-0.91908195733527</ele>
        <time>2011-12-01 11:36:35</time>
      </trkpt>
      <trkpt lat="45.16026" lon="0.2779">
        <ele>-0.75747297626344</ele>
        <time>2011-12-01 11:36:49</time>
      </trkpt>
      <trkpt lat="45.16043" lon="0.27836">
        <ele>-0.57452100136993</ele>
        <time>2011-12-01 13:23:43</time>
      </trkpt>
      <trkpt lat="45.1606" lon="0.27883">
        <ele>-0.3994171735543</ele>
        <time>2011-12-01 13:23:56</time>
      </trkpt>
      <trkpt lat="45.16063" lon="0.27934">
        <ele>-0.95621585654374</ele>
        <time>2011-12-01 13:26:59</time>
      </trkpt>
      <trkpt lat="45.16045" lon="0.2798">
        <ele>-0.18060445241576</ele>
        <time>2011-12-01 13:27:13</time>
      </trkpt>
      <trkpt lat="45.16007" lon="0.2799">
        <ele>-0.26911646388919</ele>
        <time>2011-12-01 13:27:31</time>
      </trkpt>
      <trkpt lat="45.15971" lon="0.27983">
        <ele>-1.109104753914</ele>
        <time>2011-12-01 13:27:45</time>
      </trkpt>
      <trkpt lat="45.1597" lon="0.28034">
        <ele>-0.97971578959823</ele>
        <time>2011-12-01 13:28:01</time>
      </trkpt>
      <trkpt lat="45.15965" lon="0.28085">
        <ele>-0.14440153348175</ele>
        <time>2011-12-01 13:30:23</time>
      </trkpt>
      <trkpt lat="45.15948" lon="0.2814">
        <ele>-0.75667247511876</ele>
        <time>2011-12-01 13:30:32</time>
      </trkpt>
      <trkpt lat="45.15939" lon="0.28196">
        <ele>-0.62970973524875</ele>
        <time>2011-12-01 13:30:38</time>
      </trkpt>
      <trkpt lat="45.15924" lon="0.28243">
        <ele>-1.2533521346548</ele>
        <time>2011-12-01 13:30:45</time>
      </trkpt>
      <trkpt lat="45.15918" lon="0.28297">
        <ele>-0.41148589105922</ele>
        <time>2011-12-01 13:30:54</time>
      </trkpt>
      <trkpt lat="45.15922" lon="0.2835">
        <ele>-0.25875648090664</ele>
        <time>2011-12-01 13:31:32</time>
      </trkpt>
      <trkpt lat="45.15925" lon="0.284">
        <ele>-0.81430229321768</ele>
        <time>2011-12-01 13:31:46</time>
      </trkpt>
      <trkpt lat="45.15888" lon="0.28396">
        <ele>-0.94358855823987</ele>
        <time>2011-12-01 13:32:19</time>
      </trkpt>
      <trkpt lat="45.15861" lon="0.28361">
        <ele>-0.41600712590935</ele>
        <time>2011-12-01 13:32:37</time>
      </trkpt>
      <trkpt lat="45.15865" lon="0.2831">
        <ele>-0.54601072602179</ele>
        <time>2011-12-01 13:32:52</time>
      </trkpt>
      <trkpt lat="45.15862" lon="0.28259">
        <ele>-0.69637241381019</ele>
        <time>2011-12-01 13:33:02</time>
      </trkpt>
      <trkpt lat="45.1586" lon="0.28205">
        <ele>-0.85064228666226</ele>
        <time>2011-12-01 13:33:12</time>
      </trkpt>
      <trkpt lat="45.15859" lon="0.28153">
        <ele>-0.99273944728361</ele>
        <time>2011-12-01 13:33:23</time>
      </trkpt>
      <trkpt lat="45.15852" lon="0.28102">
        <ele>-0.44677539207817</ele>
        <time>2011-12-01 13:33:36</time>
      </trkpt>
      <trkpt lat="45.15825" lon="0.28067">
        <ele>-0.62461804405882</ele>
        <time>2011-12-01 13:33:49</time>
      </trkpt>
      <trkpt lat="45.15789" lon="0.28051">
        <ele>-0.77111633216418</ele>
        <time>2011-12-01 13:33:59</time>
      </trkpt>
      <trkpt lat="45.1575" lon="0.28045">
        <ele>-0.91350217758838</ele>
        <time>2011-12-01 13:34:25</time>
      </trkpt>
      <trkpt lat="45.15713" lon="0.28038">
        <ele>-1.0454991014523</ele>
        <time>2011-12-01 13:34:40</time>
      </trkpt>
      <trkpt lat="45.15676" lon="0.28028">
        <ele>-0.47703895431061</ele>
        <time>2011-12-01 13:34:54</time>
      </trkpt>
      <trkpt lat="45.15639" lon="0.28029">
        <ele>-0.58659515962063</ele>
        <time>2011-12-01 13:35:05</time>
      </trkpt>
      <trkpt lat="45.15608" lon="0.28062">
        <ele>-0.58605179917163</ele>
        <time>2011-12-01 13:35:16</time>
      </trkpt>
      <trkpt lat="45.15574" lon="0.28079">
        <ele>-0.64905952961476</ele>
        <time>2011-12-01 13:35:29</time>
      </trkpt>
      <trkpt lat="45.15537" lon="0.28086">
        <ele>-0.7400016402853</ele>
        <time>2011-12-01 13:35:41</time>
      </trkpt>
      <trkpt lat="45.15505" lon="0.2811">
        <ele>-0.7726096244412</ele>
        <time>2011-12-01 13:35:51</time>
      </trkpt>
      <trkpt lat="45.15509" lon="0.28163">
        <ele>-0.618701860702</ele>
        <time>2011-12-01 13:36:01</time>
      </trkpt>
      <trkpt lat="45.15496" lon="0.28211">
        <ele>-0.5229444759666</ele>
        <time>2011-12-01 13:36:08</time>
      </trkpt>
      <trkpt lat="45.15505" lon="0.28262">
        <ele>-0.35282883359378</ele>
        <time>2011-12-01 13:36:17</time>
      </trkpt>
      <trkpt lat="45.1551" lon="0.28313">
        <ele>-0.90870555609604</ele>
        <time>2011-12-01 13:36:38</time>
      </trkpt>
      <trkpt lat="45.15546" lon="0.28303">
        <ele>-0.82423571747734</ele>
        <time>2011-12-01 13:38:50</time>
      </trkpt>
      <trkpt lat="45.15574" lon="0.28336">
        <ele>-0.65131957597873</ele>
        <time>2011-12-01 13:39:12</time>
      </trkpt>
      <trkpt lat="45.1559" lon="0.28383">
        <ele>-1.1827289331013</ele>
        <time>2011-12-01 13:39:31</time>
      </trkpt>
      <trkpt lat="45.15628" lon="0.28373">
        <ele>-1.0877046282317</ele>
        <time>2011-12-01 13:39:48</time>
      </trkpt>
      <trkpt lat="45.15664" lon="0.28361">
        <ele>-0.30998325806127</ele>
        <time>2011-12-01 13:39:56</time>
      </trkpt>
      <trkpt lat="45.15704" lon="0.28346">
        <ele>-0.93845403753062</ele>
        <time>2011-12-01 13:40:02</time>
      </trkpt>
      <trkpt lat="45.15742" lon="0.28336">
        <ele>-0.85237601009123</ele>
        <time>2011-12-01 13:40:10</time>
      </trkpt>
      <trkpt lat="45.15778" lon="0.28346">
        <ele>-0.71410454561442</ele>
        <time>2011-12-01 13:40:31</time>
      </trkpt>
      <trkpt lat="45.15814" lon="0.2834">
        <ele>-1.3279145475569</ele>
        <time>2011-12-01 13:40:49</time>
      </trkpt>
      <trkpt lat="45.15807" lon="0.28391">
        <ele>-0.50170896483155</ele>
        <time>2011-12-01 13:41:06</time>
      </trkpt>
      <trkpt lat="45.15799" lon="0.2844">
        <ele>-1.0901446864626</ele>
        <time>2011-12-01 13:41:23</time>
      </trkpt>
      <trkpt lat="45.15795" lon="0.28493">
        <ele>-0.96747466672309</ele>
        <time>2011-12-01 13:41:38</time>
      </trkpt>
      <trkpt lat="45.15786" lon="0.28542">
        <ele>-0.84939030974738</ele>
        <time>2011-12-01 13:41:53</time>
      </trkpt>
      <trkpt lat="45.15783" lon="0.28593">
        <ele>-0.71850225020637</ele>
        <time>2011-12-01 13:42:06</time>
      </trkpt>
      <trkpt lat="45.1578" lon="0.28644">
        <ele>-0.58746653695391</ele>
        <time>2011-12-01 13:42:20</time>
      </trkpt>
      <trkpt lat="45.15775" lon="0.28696">
        <ele>-1.1707152333134</ele>
        <time>2011-12-01 13:42:40</time>
      </trkpt>
      <trkpt lat="45.15746" lon="0.2873">
        <ele>-0.45133514526753</ele>
        <time>2011-12-01 13:43:04</time>
      </trkpt>
      <trkpt lat="45.15715" lon="0.28755">
        <ele>-1.1885168576317</ele>
        <time>2011-12-01 13:43:27</time>
      </trkpt>
      <trkpt lat="45.15694" lon="0.28797">
        <ele>-1.1322625457486</ele>
        <time>2011-12-01 13:43:49</time>
      </trkpt>
      <trkpt lat="45.15707" lon="0.28847">
        <ele>-0.95197183699497</ele>
        <time>2011-12-01 13:44:09</time>
      </trkpt>
      <trkpt lat="45.15703" lon="0.289">
        <ele>-0.10977999792476</ele>
        <time>2011-12-01 13:44:24</time>
      </trkpt>
      <trkpt lat="45.15703" lon="0.28951">
        <ele>-0.67410067337323</ele>
        <time>2011-12-01 13:44:40</time>
      </trkpt>
      <trkpt lat="45.15731" lon="0.28984">
        <ele>-1.1955399827183</ele>
        <time>2011-12-01 13:44:56</time>
      </trkpt>
      <trkpt lat="45.1575" lon="0.29028">
        <ele>-1.0145155814621</ele>
        <time>2011-12-01 13:46:49</time>
      </trkpt>
      <trkpt lat="45.15734" lon="0.29073">
        <ele>-0.23487182553958</ele>
        <time>2011-12-01 13:47:17</time>
      </trkpt>
      <trkpt lat="45.15726" lon="0.29124">
        <ele>-0.81918469833886</ele>
        <time>2011-12-01 13:47:38</time>
      </trkpt>
      <trkpt lat="45.15718" lon="0.29176">
        <ele>-0.69487401878484</ele>
        <time>2011-12-01 13:47:57</time>
      </trkpt>
      <trkpt lat="45.15704" lon="0.29225">
        <ele>-0.6068232569304</ele>
        <time>2011-12-01 13:48:13</time>
      </trkpt>
      <trkpt lat="45.15676" lon="0.29263">
        <ele>-0.5859518772811</ele>
        <time>2011-12-01 13:48:26</time>
      </trkpt>
      <trkpt lat="45.15643" lon="0.29297">
        <ele>-1.2877103846172</ele>
        <time>2011-12-01 13:48:33</time>
      </trkpt>
      <trkpt lat="45.15606" lon="0.29318">
        <ele>-0.63738166414646</ele>
        <time>2011-12-01 13:48:40</time>
      </trkpt>
      <trkpt lat="45.15567" lon="0.29332">
        <ele>-0.71557148601437</ele>
        <time>2011-12-01 13:48:46</time>
      </trkpt>
      <trkpt lat="45.15533" lon="0.29347">
        <ele>-0.77145089244755</ele>
        <time>2011-12-01 13:48:52</time>
      </trkpt>
      <trkpt lat="45.15496" lon="0.2936">
        <ele>-0.8511082499964</ele>
        <time>2011-12-01 13:48:59</time>
      </trkpt>
      <trkpt lat="45.15458" lon="0.29368">
        <ele>-0.23055293872426</ele>
        <time>2011-12-01 13:49:07</time>
      </trkpt>
      <trkpt lat="45.15422" lon="0.29366">
        <ele>-0.34481751982901</ele>
        <time>2011-12-01 13:49:17</time>
      </trkpt>
      <trkpt lat="45.15383" lon="0.29367">
        <ele>-1.1686986592808</ele>
        <time>2011-12-01 13:49:30</time>
      </trkpt>
      <trkpt lat="45.15347" lon="0.29382">
        <ele>-1.2331873176693</ele>
        <time>2011-12-01 13:49:46</time>
      </trkpt>
      <trkpt lat="45.15345" lon="0.29435">
        <ele>-0.37926646300798</ele>
        <time>2011-12-01 13:50:05</time>
      </trkpt>
      <trkpt lat="45.15349" lon="0.29487">
        <ele>-0.92006645792526</ele>
        <time>2011-12-01 13:50:12</time>
      </trkpt>
      <trkpt lat="45.15344" lon="0.29543">
        <ele>-0.77783435867411</ele>
        <time>2011-12-01 13:50:18</time>
      </trkpt>
      <trkpt lat="45.1533" lon="0.2959">
        <ele>-0.6800798702626</ele>
        <time>2011-12-01 13:50:23</time>
      </trkpt>
      <trkpt lat="45.15316" lon="0.29637">
        <ele>-0.59197527587764</ele>
        <time>2011-12-01 13:50:28</time>
      </trkpt>
      <trkpt lat="45.15302" lon="0.29687">
        <ele>-1.1959245518598</ele>
        <time>2011-12-01 13:50:33</time>
      </trkpt>
      <trkpt lat="45.15295" lon="0.29738">
        <ele>-1.0714536578704</ele>
        <time>2011-12-01 13:50:42</time>
      </trkpt>
      <trkpt lat="45.15314" lon="0.29786">
        <ele>-0.87180006693222</ele>
        <time>2011-12-01 13:51:17</time>
      </trkpt>
      <trkpt lat="45.15335" lon="0.29831">
        <ele>-0.6782913630858</ele>
        <time>2011-12-01 13:51:29</time>
      </trkpt>
      <trkpt lat="45.15357" lon="0.29874">
        <ele>-0.49653424888879</ele>
        <time>2011-12-01 13:51:39</time>
      </trkpt>
      <trkpt lat="45.15383" lon="0.29914">
        <ele>-1.0075263313629</ele>
        <time>2011-12-01 13:51:49</time>
      </trkpt>
      <trkpt lat="45.1542" lon="0.29905">
        <ele>-0.92262003456858</ele>
        <time>2011-12-01 13:52:01</time>
      </trkpt>
      <trkpt lat="45.15455" lon="0.29889">
        <ele>-0.86023068600639</ele>
        <time>2011-12-01 13:52:16</time>
      </trkpt>
      <trkpt lat="45.15487" lon="0.29913">
        <ele>-0.69962696070138</ele>
        <time>2011-12-01 13:52:36</time>
      </trkpt>
      <trkpt lat="45.15514" lon="0.29952">
        <ele>-0.50351805399725</ele>
        <time>2011-12-01 13:52:54</time>
      </trkpt>
      <trkpt lat="45.1555" lon="0.29944">
        <ele>-1.1240552919181</ele>
        <time>2011-12-01 13:53:10</time>
      </trkpt>
      <trkpt lat="45.15566" lon="0.2999">
        <ele>-0.9470554702682</ele>
        <time>2011-12-01 13:53:30</time>
      </trkpt>
      <trkpt lat="45.15599" lon="0.30023">
        <ele>-0.044541435521182</ele>
        <time>2011-12-01 13:53:40</time>
      </trkpt>
      <trkpt lat="45.1563" lon="0.30056">
        <ele>-0.5544973021415</ele>
        <time>2011-12-01 13:53:46</time>
      </trkpt>
      <trkpt lat="45.15661" lon="0.30088">
        <ele>-1.0761721131227</ele>
        <time>2011-12-01 13:53:51</time>
      </trkpt>
      <trkpt lat="45.15693" lon="0.30117">
        <ele>-0.89556377171095</ele>
        <time>2011-12-01 13:53:56</time>
      </trkpt>
      <trkpt lat="45.15728" lon="0.30128">
        <ele>-0.75659438368564</ele>
        <time>2011-12-01 13:54:03</time>
      </trkpt>
      <trkpt lat="45.15765" lon="0.30132">
        <ele>-0.63786217116854</ele>
        <time>2011-12-01 13:54:15</time>
      </trkpt>
      <trkpt lat="45.15803" lon="0.30133">
        <ele>-1.2196043131829</ele>
        <time>2011-12-01 13:54:34</time>
      </trkpt>
      <trkpt lat="45.1584" lon="0.30146">
        <ele>-0.35917263413444</ele>
        <time>2011-12-01 13:55:02</time>
      </trkpt>
      <trkpt lat="45.15874" lon="0.30167">
        <ele>-0.90838605420572</ele>
        <time>2011-12-01 13:55:15</time>
      </trkpt>
      <trkpt lat="45.15908" lon="0.30185">
        <ele>-0.74550249791935</ele>
        <time>2011-12-01 13:55:38</time>
      </trkpt>
      <trkpt lat="45.1594" lon="0.30209">
        <ele>-0.58172109152315</ele>
        <time>2011-12-01 13:56:29</time>
      </trkpt>
      <trkpt lat="45.1597" lon="0.3024">
        <ele>-0.3972362058804</ele>
        <time>2011-12-01 13:57:22</time>
      </trkpt>
      <trkpt lat="45.15991" lon="0.30286">
        <ele>-0.90407212560456</ele>
        <time>2011-12-01 13:57:43</time>
      </trkpt>
      <trkpt lat="45.16022" lon="0.30314">
        <ele>-0.72351164945621</ele>
        <time>2011-12-01 13:57:54</time>
      </trkpt>
      <trkpt lat="45.16059" lon="0.30338">
        <ele>-0.53833446011856</ele>
        <time>2011-12-01 13:58:00</time>
      </trkpt>
      <trkpt lat="45.16088" lon="0.30369">
        <ele>-0.35316570307145</ele>
        <time>2011-12-01 13:58:05</time>
      </trkpt>
      <trkpt lat="45.16123" lon="0.30377">
        <ele>-0.22551148240655</ele>
        <time>2011-12-01 13:58:25</time>
      </trkpt>
      <trkpt lat="45.16164" lon="0.30381">
        <ele>-0.083538712790641</ele>
        <time>2011-12-01 14:03:08</time>
      </trkpt>
      <trkpt lat="45.16204" lon="0.30381">
        <ele>-0.66401263588421</ele>
        <time>2011-12-01 14:03:14</time>
      </trkpt>
      <trkpt lat="45.16242" lon="0.30385">
        <ele>-0.53175713560313</ele>
        <time>2011-12-01 14:03:20</time>
      </trkpt>
      <trkpt lat="45.16278" lon="0.30404">
        <ele>-0.36374855876818</ele>
        <time>2011-12-01 14:03:31</time>
      </trkpt>
      <trkpt lat="45.1631" lon="0.30428">
        <ele>-0.89371794821977</ele>
        <time>2011-12-01 14:03:39</time>
      </trkpt>
      <trkpt lat="45.16343" lon="0.30452">
        <ele>-0.72903421660965</ele>
        <time>2011-12-01 14:03:49</time>
      </trkpt>
      <trkpt lat="45.16383" lon="0.30472">
        <ele>-0.53753666495083</ele>
        <time>2011-12-01 14:03:58</time>
      </trkpt>
      <trkpt lat="45.1642" lon="0.30482">
        <ele>-0.39330435412433</ele>
        <time>2011-12-01 14:04:05</time>
      </trkpt>
      <trkpt lat="45.16445" lon="0.30519">
        <ele>-0.20565682667245</ele>
        <time>2011-12-01 14:04:16</time>
      </trkpt>
      <trkpt lat="45.16478" lon="0.3054">
        <ele>-0.034580833633754</ele>
        <time>2011-12-01 14:04:30</time>
      </trkpt>
      <trkpt lat="45.16515" lon="0.30544">
        <ele>-0.61650951368017</ele>
        <time>2011-12-01 14:04:51</time>
      </trkpt>
      <trkpt lat="45.16556" lon="0.3054">
        <ele>-0.49440040688137</ele>
        <time>2011-12-01 14:05:06</time>
      </trkpt>
      <trkpt lat="45.16593" lon="0.30529">
        <ele>-0.40582754335264</ele>
        <time>2011-12-01 14:05:16</time>
      </trkpt>
      <trkpt lat="45.16625" lon="0.305">
        <ele>-0.38838623608865</ele>
        <time>2011-12-01 14:05:32</time>
      </trkpt>
      <trkpt lat="45.16658" lon="0.30479">
        <ele>-0.34737569756135</ele>
        <time>2011-12-01 14:05:48</time>
      </trkpt>
      <trkpt lat="45.16693" lon="0.3046">
        <ele>-0.2915575666276</ele>
        <time>2011-12-01 14:06:06</time>
      </trkpt>
      <trkpt lat="45.16728" lon="0.30443">
        <ele>-0.22091860337116</ele>
        <time>2011-12-01 14:06:27</time>
      </trkpt>
      <trkpt lat="45.16762" lon="0.30423">
        <ele>-0.88303708798185</ele>
        <time>2011-12-01 14:06:49</time>
      </trkpt>
      <trkpt lat="45.16795" lon="0.30402">
        <ele>-0.84105792854143</ele>
        <time>2011-12-01 14:07:44</time>
      </trkpt>
      <trkpt lat="45.16828" lon="0.3038">
        <ele>-0.78902842123705</ele>
        <time>2011-12-01 14:08:10</time>
      </trkpt>
      <trkpt lat="45.16864" lon="0.30372">
        <ele>-0.70428243796982</ele>
        <time>2011-12-01 14:09:30</time>
      </trkpt>
      <trkpt lat="45.16898" lon="0.3035">
        <ele>-0.65134621486186</ele>
        <time>2011-12-01 14:09:45</time>
      </trkpt>
      <trkpt lat="45.16931" lon="0.30329">
        <ele>-0.608405113289</ele>
        <time>2011-12-01 14:10:08</time>
      </trkpt>
      <trkpt lat="45.1692" lon="0.3028">
        <ele>-0.78339357130187</ele>
        <time>2011-12-01 14:12:19</time>
      </trkpt>
      <trkpt lat="45.16919" lon="0.30228">
        <ele>-0.94163803798278</ele>
        <time>2011-12-01 14:12:32</time>
      </trkpt>
      <trkpt lat="45.16908" lon="0.30177">
        <ele>-0.42401815787707</ele>
        <time>2011-12-01 14:12:49</time>
      </trkpt>
      <trkpt lat="45.16882" lon="0.30138">
        <ele>-1.3338048979151</ele>
        <time>2011-12-01 14:13:05</time>
      </trkpt>
      <trkpt lat="45.16858" lon="0.30099">
        <ele>-0.81850455027791</ele>
        <time>2011-12-01 14:13:21</time>
      </trkpt>
      <trkpt lat="45.16834" lon="0.3006">
        <ele>-0.29493325216413</ele>
        <time>2011-12-01 14:13:36</time>
      </trkpt>
      <trkpt lat="45.16808" lon="0.30024">
        <ele>-0.49158090100798</ele>
        <time>2011-12-01 14:13:52</time>
      </trkpt>
      <trkpt lat="45.16784" lon="0.29985">
        <ele>-0.68386878907995</ele>
        <time>2011-12-01 14:14:07</time>
      </trkpt>
      <trkpt lat="45.16759" lon="0.29945">
        <ele>-0.16990755499296</ele>
        <time>2011-12-01 14:14:21</time>
      </trkpt>
      <trkpt lat="45.16732" lon="0.29908">
        <ele>-0.36808561180033</ele>
        <time>2011-12-01 14:14:35</time>
      </trkpt>
      <trkpt lat="45.16708" lon="0.29867">
        <ele>-0.56191099159162</ele>
        <time>2011-12-01 14:14:48</time>
      </trkpt>
      <trkpt lat="45.16693" lon="0.29817">
        <ele>-0.75805850553672</ele>
        <time>2011-12-01 14:15:02</time>
      </trkpt>
      <trkpt lat="45.16689" lon="0.29765">
        <ele>-0.20959782134571</ele>
        <time>2011-12-01 14:15:17</time>
      </trkpt>
      <trkpt lat="45.16688" lon="0.29713">
        <ele>-0.3662755160301</ele>
        <time>2011-12-01 14:15:33</time>
      </trkpt>
      <trkpt lat="45.16695" lon="0.29662">
        <ele>-0.48857128070813</ele>
        <time>2011-12-01 14:15:44</time>
      </trkpt>
      <trkpt lat="45.16707" lon="0.2961">
        <ele>-0.60187890855821</ele>
        <time>2011-12-01 14:15:54</time>
      </trkpt>
      <trkpt lat="45.16704" lon="0.29558">
        <ele>-0.75848871548305</ele>
        <time>2011-12-01 14:16:06</time>
      </trkpt>
      <trkpt lat="45.16708" lon="0.29507">
        <ele>-0.18522576730197</ele>
        <time>2011-12-01 14:16:21</time>
      </trkpt>
      <trkpt lat="45.16713" lon="0.29456">
        <ele>-0.31748060578764</ele>
        <time>2011-12-01 14:16:34</time>
      </trkpt>
      <trkpt lat="45.16709" lon="0.29404">
        <ele>-0.47402604904153</ele>
        <time>2011-12-01 14:16:47</time>
      </trkpt>
      <trkpt lat="45.16711" lon="0.29352">
        <ele>-0.61906462842217</ele>
        <time>2011-12-01 14:17:00</time>
      </trkpt>
      <trkpt lat="45.16715" lon="0.293">
        <ele>-0.75336808098098</ele>
        <time>2011-12-01 14:17:11</time>
      </trkpt>
      <trkpt lat="45.16705" lon="0.29249">
        <ele>-0.92889385681679</ele>
        <time>2011-12-01 14:17:28</time>
      </trkpt>
      <trkpt lat="45.1669" lon="0.29197">
        <ele>-0.42105497143029</ele>
        <time>2011-12-01 14:18:41</time>
      </trkpt>
      <trkpt lat="45.16689" lon="0.29146">
        <ele>-0.56415198805473</ele>
        <time>2011-12-01 14:18:48</time>
      </trkpt>
      <trkpt lat="45.16694" lon="0.29095">
        <ele>-0.6953916334362</ele>
        <time>2011-12-01 14:18:56</time>
      </trkpt>
      <trkpt lat="45.16678" lon="0.29044">
        <ele>-0.89180049561981</ele>
        <time>2011-12-01 14:19:04</time>
      </trkpt>
      <trkpt lat="45.16663" lon="0.28996">
        <ele>-0.36721743258283</ele>
        <time>2011-12-01 14:19:15</time>
      </trkpt>
      <trkpt lat="45.16646" lon="0.28951">
        <ele>-0.55320810583987</ele>
        <time>2011-12-01 14:19:25</time>
      </trkpt>
      <trkpt lat="45.16627" lon="0.28908">
        <ele>-0.73731359524516</ele>
        <time>2011-12-01 14:19:32</time>
      </trkpt>
      <trkpt lat="45.16604" lon="0.28862">
        <ele>-0.93628009156464</ele>
        <time>2011-12-01 14:19:39</time>
      </trkpt>
      <trkpt lat="45.16582" lon="0.2882">
        <ele>-0.41257567423531</ele>
        <time>2011-12-01 14:19:46</time>
      </trkpt>
      <trkpt lat="45.1657" lon="0.28769">
        <ele>-0.59662216285597</ele>
        <time>2011-12-01 14:19:54</time>
      </trkpt>
      <trkpt lat="45.1656" lon="0.28716">
        <ele>-0.77240583357354</ele>
        <time>2011-12-01 14:20:06</time>
      </trkpt>
      <trkpt lat="45.16533" lon="0.28683">
        <ele>-0.24491367097858</ele>
        <time>2011-12-01 14:20:18</time>
      </trkpt>
      <trkpt lat="45.16551" lon="0.28636">
        <ele>-0.31631437111753</ele>
        <time>2011-12-01 14:20:32</time>
      </trkpt>
      <trkpt lat="45.16568" lon="0.28591">
        <ele>-0.39563402771364</ele>
        <time>2011-12-01 14:20:46</time>
      </trkpt>
      <trkpt lat="45.16577" lon="0.2854">
        <ele>-0.50472832942057</ele>
        <time>2011-12-01 14:21:04</time>
      </trkpt>
      <trkpt lat="45.16597" lon="0.28493">
        <ele>-0.56507264940342</ele>
        <time>2011-12-01 14:21:17</time>
      </trkpt>
      <trkpt lat="45.16578" lon="0.28536">
        <ele>-0.51052899078354</ele>
        <time>2011-12-01 14:22:02</time>
      </trkpt>
      <trkpt lat="45.16568" lon="0.28585">
        <ele>-1.1099357944782</ele>
        <time>2011-12-01 14:22:54</time>
      </trkpt>
      <trkpt lat="45.16554" lon="0.28636">
        <ele>-1.0118985463978</ele>
        <time>2011-12-01 14:23:07</time>
      </trkpt>
      <trkpt lat="45.16591" lon="0.28649">
        <ele>-0.8634013575213</ele>
        <time>2011-12-01 14:23:22</time>
      </trkpt>
      <trkpt lat="45.16627" lon="0.28632">
        <ele>-0.7938449494078</ele>
        <time>2011-12-01 14:23:34</time>
      </trkpt>
      <trkpt lat="45.16655" lon="0.28597">
        <ele>-0.80203319613497</ele>
        <time>2011-12-01 14:33:02</time>
      </trkpt>
      <trkpt lat="45.16689" lon="0.28578">
        <ele>-0.74422743774437</ele>
        <time>2011-12-01 14:33:13</time>
      </trkpt>
      <trkpt lat="45.16725" lon="0.28557">
        <ele>-0.68989018152877</ele>
        <time>2011-12-01 14:33:27</time>
      </trkpt>
      <trkpt lat="45.16755" lon="0.28529">
        <ele>-0.6667415423309</ele>
        <time>2011-12-01 14:33:38</time>
      </trkpt>
      <trkpt lat="45.16786" lon="0.28494">
        <ele>-0.66546604416817</ele>
        <time>2011-12-01 14:33:45</time>
      </trkpt>
      <trkpt lat="45.1681" lon="0.28453">
        <ele>-0.69378930873177</ele>
        <time>2011-12-01 14:33:52</time>
      </trkpt>
      <trkpt lat="45.16832" lon="0.28413">
        <ele>-0.73254424845197</ele>
        <time>2011-12-01 14:34:00</time>
      </trkpt>
      <trkpt lat="45.16861" lon="0.28382">
        <ele>-0.72284563047174</ele>
        <time>2011-12-01 14:34:08</time>
      </trkpt>
      <trkpt lat="45.16893" lon="0.28348">
        <ele>-0.71818057454163</ele>
        <time>2011-12-01 14:34:16</time>
      </trkpt>
      <trkpt lat="45.16921" lon="0.2831">
        <ele>-0.73047892848081</ele>
        <time>2011-12-01 14:34:24</time>
      </trkpt>
      <trkpt lat="45.16941" lon="0.28263">
        <ele>-0.78928905797409</ele>
        <time>2011-12-01 14:34:31</time>
      </trkpt>
      <trkpt lat="45.16962" lon="0.28217">
        <ele>-0.13897188313251</ele>
        <time>2011-12-01 14:34:38</time>
      </trkpt>
      <trkpt lat="45.16998" lon="0.2823">
        <ele>-0.69434870337273</ele>
        <time>2011-12-01 14:36:07</time>
      </trkpt>
      <trkpt lat="45.17033" lon="0.28258">
        <ele>-1.2059436348742</ele>
        <time>2011-12-01 14:36:16</time>
      </trkpt>
      <trkpt lat="45.17068" lon="0.28287">
        <ele>-0.3146060743037</ele>
        <time>2011-12-01 14:36:24</time>
      </trkpt>
      <trkpt lat="45.17099" lon="0.2832">
        <ele>-0.81894334438323</ele>
        <time>2011-12-01 14:36:32</time>
      </trkpt>
      <trkpt lat="45.17129" lon="0.28356">
        <ele>-0.62278134193627</ele>
        <time>2011-12-01 14:36:41</time>
      </trkpt>
      <trkpt lat="45.17165" lon="0.2838">
        <ele>-0.44273980589344</ele>
        <time>2011-12-01 14:36:50</time>
      </trkpt>
      <trkpt lat="45.17197" lon="0.28404">
        <ele>-0.96990988003654</ele>
        <time>2011-12-01 14:36:59</time>
      </trkpt>
      <trkpt lat="45.17227" lon="0.28436">
        <ele>-0.073161873058439</ele>
        <time>2011-12-01 14:37:09</time>
      </trkpt>
      <trkpt lat="45.17262" lon="0.28453">
        <ele>-0.62089657099</ele>
        <time>2011-12-01 14:37:19</time>
      </trkpt>
      <trkpt lat="45.17301" lon="0.28453">
        <ele>-1.1933773301891</ele>
        <time>2011-12-01 14:37:29</time>
      </trkpt>
      <trkpt lat="45.17335" lon="0.28471">
        <ele>-1.0326012908384</ele>
        <time>2011-12-01 14:37:36</time>
      </trkpt>
      <trkpt lat="45.17378" lon="0.2847">
        <ele>-0.88862780848717</ele>
        <time>2011-12-01 14:37:42</time>
      </trkpt>
      <trkpt lat="45.17415" lon="0.28475">
        <ele>-0.75647785007004</ele>
        <time>2011-12-01 14:37:46</time>
      </trkpt>
      <trkpt lat="45.17458" lon="0.28487">
        <ele>-1.2782515455499</ele>
        <time>2011-12-01 14:37:50</time>
      </trkpt>
      <trkpt lat="45.17502" lon="0.28502">
        <ele>-0.38052448672863</ele>
        <time>2011-12-01 14:37:54</time>
      </trkpt>
      <trkpt lat="45.17544" lon="0.2851">
        <ele>-0.2214158606248</ele>
        <time>2011-12-01 14:37:58</time>
      </trkpt>
      <trkpt lat="45.17583" lon="0.28522">
        <ele>-0.76352378657521</ele>
        <time>2011-12-01 14:38:02</time>
      </trkpt>
      <trkpt lat="45.17619" lon="0.28532">
        <ele>-0.61190143277793</ele>
        <time>2011-12-01 14:38:06</time>
      </trkpt>
      <trkpt lat="45.17657" lon="0.2856">
        <ele>-1.1077554685483</ele>
        <time>2011-12-01 14:38:11</time>
      </trkpt>
      <trkpt lat="45.17697" lon="0.28572">
        <ele>-0.23595086179546</ele>
        <time>2011-12-01 14:38:16</time>
      </trkpt>
      <trkpt lat="45.17741" lon="0.28576">
        <ele>-0.77682483236117</ele>
        <time>2011-12-01 14:38:21</time>
      </trkpt>
      <trkpt lat="45.17778" lon="0.28579">
        <ele>-0.64617162326954</ele>
        <time>2011-12-01 14:38:27</time>
      </trkpt>
      <trkpt lat="45.17791" lon="0.2863">
        <ele>-1.165263151712</ele>
        <time>2011-12-01 14:38:43</time>
      </trkpt>
      <trkpt lat="45.17827" lon="0.28639">
        <ele>-1.0148124970453</ele>
        <time>2011-12-01 14:38:54</time>
      </trkpt>
      <trkpt lat="45.17869" lon="0.28628">
        <ele>-0.90348830620019</ele>
        <time>2011-12-01 14:39:00</time>
      </trkpt>
      <trkpt lat="45.17911" lon="0.28635">
        <ele>-0.73154879387164</ele>
        <time>2011-12-01 14:39:06</time>
      </trkpt>
      <trkpt lat="45.17949" lon="0.28643">
        <ele>-0.5809475209719</ele>
        <time>2011-12-01 14:39:15</time>
      </trkpt>
      <trkpt lat="45.17985" lon="0.28646">
        <ele>-1.1553417398973</ele>
        <time>2011-12-01 14:39:29</time>
      </trkpt>
      <trkpt lat="45.18022" lon="0.28649">
        <ele>-1.022936036653</ele>
        <time>2011-12-01 14:39:48</time>
      </trkpt>
      <trkpt lat="45.18058" lon="0.28659">
        <ele>-0.86883001945103</ele>
        <time>2011-12-01 14:40:06</time>
      </trkpt>
      <trkpt lat="45.18075" lon="0.28708">
        <ele>-0.6725823595616</ele>
        <time>2011-12-01 14:40:24</time>
      </trkpt>
      <trkpt lat="45.18111" lon="0.28724">
        <ele>-0.49795178869101</ele>
        <time>2011-12-01 14:40:38</time>
      </trkpt>
      <trkpt lat="45.18146" lon="0.28736">
        <ele>-0.3411293990564</ele>
        <time>2011-12-01 14:40:54</time>
      </trkpt>
      <trkpt lat="45.18183" lon="0.28748">
        <ele>-0.88985136357235</ele>
        <time>2011-12-01 14:41:11</time>
      </trkpt>
      <trkpt lat="45.18212" lon="0.28778">
        <ele>-0.69549208997694</ele>
        <time>2011-12-01 14:41:28</time>
      </trkpt>
      <trkpt lat="45.18228" lon="0.28825">
        <ele>-1.2175774088507</ele>
        <time>2011-12-01 14:41:50</time>
      </trkpt>
      <trkpt lat="45.18227" lon="0.28879">
        <ele>-1.0716835555093</ele>
        <time>2011-12-01 14:42:09</time>
      </trkpt>
      <trkpt lat="45.18243" lon="0.28927">
        <ele>-0.87578278417027</ele>
        <time>2011-12-01 14:42:28</time>
      </trkpt>
      <trkpt lat="45.18269" lon="0.28964">
        <ele>-0.68171194977788</ele>
        <time>2011-12-01 14:42:47</time>
      </trkpt>
      <trkpt lat="45.18296" lon="0.29003">
        <ele>-0.48535010849594</ele>
        <time>2011-12-01 14:43:08</time>
      </trkpt>
      <trkpt lat="45.18324" lon="0.29036">
        <ele>-0.28652243562522</ele>
        <time>2011-12-01 14:43:27</time>
      </trkpt>
      <trkpt lat="45.18354" lon="0.29068">
        <ele>-0.79455070302538</ele>
        <time>2011-12-01 14:43:46</time>
      </trkpt>
      <trkpt lat="45.18379" lon="0.29105">
        <ele>-0.60041678711934</ele>
        <time>2011-12-01 14:44:04</time>
      </trkpt>
      <trkpt lat="45.18407" lon="0.29139">
        <ele>-0.40866240098001</ele>
        <time>2011-12-01 14:44:21</time>
      </trkpt>
      <trkpt lat="45.18435" lon="0.29174">
        <ele>-0.91264133348659</ele>
        <time>2011-12-01 14:44:37</time>
      </trkpt>
      <trkpt lat="45.18467" lon="0.29199">
        <ele>-0.73268106850344</ele>
        <time>2011-12-01 14:44:52</time>
      </trkpt>
      <trkpt lat="45.18503" lon="0.29212">
        <ele>-0.56119606517154</ele>
        <time>2011-12-01 14:45:05</time>
      </trkpt>
      <trkpt lat="45.1854" lon="0.29215">
        <ele>-0.42501932262849</ele>
        <time>2011-12-01 14:45:21</time>
      </trkpt>
      <trkpt lat="45.18577" lon="0.2922">
        <ele>-0.98031386638638</ele>
        <time>2011-12-01 14:45:40</time>
      </trkpt>
      <trkpt lat="45.18615" lon="0.2922">
        <ele>-0.84694909019538</ele>
        <time>2011-12-01 14:45:52</time>
      </trkpt>
      <trkpt lat="45.18652" lon="0.29213">
        <ele>-0.73657029571768</ele>
        <time>2011-12-01 14:46:04</time>
      </trkpt>
      <trkpt lat="45.18689" lon="0.29203">
        <ele>-0.6301189200808</ele>
        <time>2011-12-01 14:46:19</time>
      </trkpt>
      <trkpt lat="45.18726" lon="0.29194">
        <ele>-1.2278864659699</ele>
        <time>2011-12-01 14:46:35</time>
      </trkpt>
      <trkpt lat="45.18763" lon="0.29186">
        <ele>-0.4122170390151</ele>
        <time>2011-12-01 14:46:53</time>
      </trkpt>
      <trkpt lat="45.18799" lon="0.29169">
        <ele>-1.0318339587155</ele>
        <time>2011-12-01 14:47:11</time>
      </trkpt>
      <trkpt lat="45.18834" lon="0.29153">
        <ele>-0.9562082026431</ele>
        <time>2011-12-01 14:47:28</time>
      </trkpt>
      <trkpt lat="45.18869" lon="0.29145">
        <ele>-0.84516030234533</ele>
        <time>2011-12-01 14:47:44</time>
      </trkpt>
      <trkpt lat="45.18908" lon="0.29141">
        <ele>-0.71802314556487</ele>
        <time>2011-12-01 14:47:59</time>
      </trkpt>
      <trkpt lat="45.18942" lon="0.29123">
        <ele>-0.64374134372144</ele>
        <time>2011-12-01 14:48:14</time>
      </trkpt>
      <trkpt lat="45.18976" lon="0.29107">
        <ele>-0.55732348202173</ele>
        <time>2011-12-01 14:48:28</time>
      </trkpt>
      <trkpt lat="45.19014" lon="0.29103">
        <ele>-1.1437065361409</ele>
        <time>2011-12-01 14:48:46</time>
      </trkpt>
      <trkpt lat="45.18999" lon="0.29054">
        <ele>-0.62592507010504</ele>
        <time>2011-12-01 14:50:16</time>
      </trkpt>
      <trkpt lat="45.18968" lon="0.2902">
        <ele>-0.83333253894182</ele>
        <time>2011-12-01 14:50:25</time>
      </trkpt>
      <trkpt lat="45.18934" lon="0.28991">
        <ele>-0.33721880668293</ele>
        <time>2011-12-01 14:50:31</time>
      </trkpt>
      <trkpt lat="45.18901" lon="0.28957">
        <ele>-0.55275005233113</ele>
        <time>2011-12-01 14:50:37</time>
      </trkpt>
      <trkpt lat="45.18881" lon="0.28911">
        <ele>-0.75018304672847</ele>
        <time>2011-12-01 14:50:43</time>
      </trkpt>
      <trkpt lat="45.18884" lon="0.28859">
        <ele>-0.89223554152079</ele>
        <time>2011-12-01 14:51:17</time>
      </trkpt>
      <trkpt lat="45.18847" lon="0.28853">
        <ele>-0.3304268435204</ele>
        <time>2011-12-01 14:51:36</time>
      </trkpt>
      <trkpt lat="45.18812" lon="0.2884">
        <ele>-1.1998976056907</ele>
        <time>2011-12-01 14:52:16</time>
      </trkpt>
      <trkpt lat="45.18775" lon="0.28834">
        <ele>-0.64620618492791</ele>
        <time>2011-12-01 14:52:26</time>
      </trkpt>
      <trkpt lat="45.18747" lon="0.28799">
        <ele>-0.85121769402997</ele>
        <time>2011-12-01 14:52:33</time>
      </trkpt>
      <trkpt lat="45.18734" lon="0.2875">
        <ele>-1.0268633375891</ele>
        <time>2011-12-01 14:52:39</time>
      </trkpt>
      <trkpt lat="45.18716" lon="0.28704">
        <ele>-0.51564301117719</ele>
        <time>2011-12-01 14:52:47</time>
      </trkpt>
      <trkpt lat="45.18692" lon="0.28661">
        <ele>-0.7298094270152</ele>
        <time>2011-12-01 14:52:58</time>
      </trkpt>
      <trkpt lat="45.18668" lon="0.28616">
        <ele>-0.22943222371396</ele>
        <time>2011-12-01 14:53:07</time>
      </trkpt>
      <trkpt lat="45.18646" lon="0.28569">
        <ele>-0.43865598914874</ele>
        <time>2011-12-01 14:53:15</time>
      </trkpt>
      <trkpt lat="45.18627" lon="0.28521">
        <ele>-0.64712897712047</ele>
        <time>2011-12-01 14:53:23</time>
      </trkpt>
      <trkpt lat="45.18612" lon="0.28471">
        <ele>-0.8352796849673</ele>
        <time>2011-12-01 14:53:31</time>
      </trkpt>
      <trkpt lat="45.18601" lon="0.28421">
        <ele>-0.30431288223338</ele>
        <time>2011-12-01 14:53:44</time>
      </trkpt>
      <trkpt lat="45.18624" lon="0.28378">
        <ele>-0.33869646075038</ele>
        <time>2011-12-01 14:54:21</time>
      </trkpt>
      <trkpt lat="45.18648" lon="0.28336">
        <ele>-1.0765567945267</ele>
        <time>2011-12-01 14:54:37</time>
      </trkpt>
      <trkpt lat="45.18671" lon="0.28294">
        <ele>-0.40191009585863</ele>
        <time>2011-12-01 14:54:52</time>
      </trkpt>
      <trkpt lat="45.18694" lon="0.28253">
        <ele>-0.4336426802389</ele>
        <time>2011-12-01 14:55:06</time>
      </trkpt>
      <trkpt lat="45.18718" lon="0.28211">
        <ele>-1.1708815215032</ele>
        <time>2011-12-01 14:55:16</time>
      </trkpt>
      <trkpt lat="45.18743" lon="0.2817">
        <ele>-0.48290715655423</ele>
        <time>2011-12-01 14:55:25</time>
      </trkpt>
      <trkpt lat="45.18767" lon="0.2813">
        <ele>-0.50131155573342</ele>
        <time>2011-12-01 14:55:35</time>
      </trkpt>
      <trkpt lat="45.18786" lon="0.28085">
        <ele>-1.2651520629173</ele>
        <time>2011-12-01 14:56:01</time>
      </trkpt>
      <trkpt lat="45.18758" lon="0.28118">
        <ele>-0.56494566799688</ele>
        <time>2011-12-01 14:57:26</time>
      </trkpt>
      <trkpt lat="45.18735" lon="0.28157">
        <ele>-0.53786074932452</ele>
        <time>2011-12-01 14:57:57</time>
      </trkpt>
      <trkpt lat="45.18712" lon="0.28197">
        <ele>-0.52039056247918</ele>
        <time>2011-12-01 14:58:52</time>
      </trkpt>
      <trkpt lat="45.18688" lon="0.28236">
        <ele>-1.1995129040306</ele>
        <time>2011-12-01 14:59:36</time>
      </trkpt>
      <trkpt lat="45.18665" lon="0.28277">
        <ele>-0.47391435978398</ele>
        <time>2011-12-01 15:00:10</time>
      </trkpt>
      <trkpt lat="45.18631" lon="0.2826">
        <ele>-0.64125877923209</ele>
        <time>2011-12-01 15:01:11</time>
      </trkpt>
      <trkpt lat="45.18595" lon="0.28241">
        <ele>-0.82307377269183</ele>
        <time>2011-12-01 15:01:23</time>
      </trkpt>
      <trkpt lat="45.18558" lon="0.28221">
        <ele>-1.0054641507547</ele>
        <time>2011-12-01 15:01:32</time>
      </trkpt>
      <trkpt lat="45.18533" lon="0.28184">
        <ele>-0.4920547759275</ele>
        <time>2011-12-01 15:01:39</time>
      </trkpt>
      <trkpt lat="45.18512" lon="0.28136">
        <ele>-0.70072351582269</ele>
        <time>2011-12-01 15:01:47</time>
      </trkpt>
      <trkpt lat="45.18476" lon="0.28119">
        <ele>-0.8677465054094</ele>
        <time>2011-12-01 15:01:55</time>
      </trkpt>
      <trkpt lat="45.18451" lon="0.28078">
        <ele>-1.0761510133781</ele>
        <time>2011-12-01 15:02:09</time>
      </trkpt>
      <trkpt lat="45.18427" lon="0.28039">
        <ele>-0.55534271244244</ele>
        <time>2011-12-01 15:02:16</time>
      </trkpt>
      <trkpt lat="45.18412" lon="0.27992">
        <ele>-0.7375362808375</ele>
        <time>2011-12-01 15:03:45</time>
      </trkpt>
      <trkpt lat="45.1838" lon="0.2796">
        <ele>-0.23930435625141</ele>
        <time>2011-12-01 15:04:39</time>
      </trkpt>
      <trkpt lat="45.18344" lon="0.27931">
        <ele>-0.43312385554202</ele>
        <time>2011-12-01 15:04:46</time>
      </trkpt>
      <trkpt lat="45.18328" lon="0.27874">
        <ele>-0.65120922386802</ele>
        <time>2011-12-01 15:04:52</time>
      </trkpt>
      <trkpt lat="45.18337" lon="0.27816">
        <ele>-0.77695495485796</ele>
        <time>2011-12-01 15:04:57</time>
      </trkpt>
      <trkpt lat="45.18357" lon="0.27772">
        <ele>-0.82242374890745</ele>
        <time>2011-12-01 15:05:01</time>
      </trkpt>
      <trkpt lat="45.18377" lon="0.27728">
        <ele>-0.87049485423654</ele>
        <time>2011-12-01 15:05:05</time>
      </trkpt>
      <trkpt lat="45.184" lon="0.27679">
        <ele>-0.21737492965633</ele>
        <time>2011-12-01 15:05:10</time>
      </trkpt>
      <trkpt lat="45.18422" lon="0.27634">
        <ele>-0.25363223719341</ele>
        <time>2011-12-01 15:05:15</time>
      </trkpt>
      <trkpt lat="45.18413" lon="0.27584">
        <ele>-1.1314359031159</ele>
        <time>2011-12-01 15:05:30</time>
      </trkpt>
      <trkpt lat="45.1838" lon="0.27556">
        <ele>-0.61673077803334</ele>
        <time>2011-12-01 15:05:41</time>
      </trkpt>
      <trkpt lat="45.18347" lon="0.27528">
        <ele>-0.80833351445688</ele>
        <time>2011-12-01 15:05:50</time>
      </trkpt>
      <trkpt lat="45.18317" lon="0.275">
        <ele>-0.98831356729295</ele>
        <time>2011-12-01 15:06:02</time>
      </trkpt>
      <trkpt lat="45.18285" lon="0.27474">
        <ele>-1.1648988721061</ele>
        <time>2011-12-01 15:07:22</time>
      </trkpt>
      <trkpt lat="45.18252" lon="0.27496">
        <ele>-1.2297662203949</ele>
        <time>2011-12-01 15:07:45</time>
      </trkpt>
      <trkpt lat="45.18217" lon="0.2751">
        <ele>-0.61102580261138</ele>
        <time>2011-12-01 15:08:13</time>
      </trkpt>
      <trkpt lat="45.18185" lon="0.27484">
        <ele>-0.78701400094735</ele>
        <time>2011-12-01 15:08:40</time>
      </trkpt>
      <trkpt lat="45.1816" lon="0.27446">
        <ele>-0.97878288415609</ele>
        <time>2011-12-01 15:08:56</time>
      </trkpt>
      <trkpt lat="45.18131" lon="0.27409">
        <ele>-0.47384636960862</ele>
        <time>2011-12-01 15:09:05</time>
      </trkpt>
      <trkpt lat="45.18101" lon="0.27372">
        <ele>-0.6759452969078</ele>
        <time>2011-12-01 15:10:05</time>
      </trkpt>
      <trkpt lat="45.18066" lon="0.27346">
        <ele>-0.8622668357566</ele>
        <time>2011-12-01 15:10:14</time>
      </trkpt>
      <trkpt lat="45.18037" lon="0.27312">
        <ele>-0.35338999089754</ele>
        <time>2011-12-01 15:10:23</time>
      </trkpt>
      <trkpt lat="45.18002" lon="0.2729">
        <ele>-0.53331711156056</ele>
        <time>2011-12-01 15:10:32</time>
      </trkpt>
      <trkpt lat="45.17965" lon="0.27287">
        <ele>-0.66536753687274</ele>
        <time>2011-12-01 15:10:43</time>
      </trkpt>
      <trkpt lat="45.1793" lon="0.273">
        <ele>-0.75333137170526</ele>
        <time>2011-12-01 15:11:01</time>
      </trkpt>
      <trkpt lat="45.17899" lon="0.27329">
        <ele>-0.78339006123588</ele>
        <time>2011-12-01 15:11:11</time>
      </trkpt>
      <trkpt lat="45.17869" lon="0.27359">
        <ele>-0.81125617550811</ele>
        <time>2011-12-01 15:11:21</time>
      </trkpt>
      <trkpt lat="45.17835" lon="0.27379">
        <ele>-0.8755694036704</ele>
        <time>2011-12-01 15:11:35</time>
      </trkpt>
      <trkpt lat="45.17795" lon="0.27364">
        <ele>-1.0574896186062</ele>
        <time>2011-12-01 15:11:44</time>
      </trkpt>
      <trkpt lat="45.17761" lon="0.27328">
        <ele>-0.56077940281955</ele>
        <time>2011-12-01 15:11:51</time>
      </trkpt>
      <trkpt lat="45.17727" lon="0.27306">
        <ele>-0.72909746915445</ele>
        <time>2011-12-01 15:11:59</time>
      </trkpt>
      <trkpt lat="45.17694" lon="0.27285">
        <ele>-0.90634102717979</ele>
        <time>2011-12-01 15:12:27</time>
      </trkpt>
      <trkpt lat="45.1766" lon="0.27264">
        <ele>-0.36569551692219</ele>
        <time>2011-12-01 15:12:45</time>
      </trkpt>
      <trkpt lat="45.17623" lon="0.27259">
        <ele>-0.50903283124831</ele>
        <time>2011-12-01 15:13:05</time>
      </trkpt>
      <trkpt lat="45.17585" lon="0.27266">
        <ele>-0.61350195927616</ele>
        <time>2011-12-01 15:13:18</time>
      </trkpt>
      <trkpt lat="45.17546" lon="0.27261">
        <ele>-0.76729729933243</ele>
        <time>2011-12-01 15:13:29</time>
      </trkpt>
      <trkpt lat="45.17511" lon="0.27243">
        <ele>-0.92823501026567</ele>
        <time>2011-12-01 15:13:41</time>
      </trkpt>
      <trkpt lat="45.17471" lon="0.27231">
        <ele>-0.38532306208981</ele>
        <time>2011-12-01 15:13:57</time>
      </trkpt>
      <trkpt lat="45.17436" lon="0.2722">
        <ele>-0.53652349883294</ele>
        <time>2011-12-01 15:14:02</time>
      </trkpt>
      <trkpt lat="45.17401" lon="0.27197">
        <ele>-0.71431834248472</ele>
        <time>2011-12-01 15:14:09</time>
      </trkpt>
      <trkpt lat="45.17368" lon="0.27172">
        <ele>-0.8932576046609</ele>
        <time>2011-12-01 15:14:19</time>
      </trkpt>
      <trkpt lat="45.17333" lon="0.27152">
        <ele>-1.0671841705466</ele>
        <time>2011-12-01 15:14:30</time>
      </trkpt>
      <trkpt lat="45.17295" lon="0.27147">
        <ele>-0.50220428850457</ele>
        <time>2011-12-01 15:14:43</time>
      </trkpt>
      <trkpt lat="45.17269" lon="0.27111">
        <ele>-0.68552477536809</ele>
        <time>2011-12-01 15:15:00</time>
      </trkpt>
      <trkpt lat="45.17253" lon="0.27062">
        <ele>-0.85400879715644</ele>
        <time>2011-12-01 15:15:12</time>
      </trkpt>
      <trkpt lat="45.17267" lon="0.27112">
        <ele>-0.68409707071532</ele>
        <time>2011-12-01 15:15:37</time>
      </trkpt>
      <trkpt lat="45.17233" lon="0.27145">
        <ele>-0.70624296941969</ele>
        <time>2011-12-01 15:15:50</time>
      </trkpt>
      <trkpt lat="45.17198" lon="0.2717">
        <ele>-0.75942825449454</ele>
        <time>2011-12-01 15:15:57</time>
      </trkpt>
      <trkpt lat="45.17163" lon="0.27192">
        <ele>-0.81870817684455</ele>
        <time>2011-12-01 15:16:13</time>
      </trkpt>
      <trkpt lat="45.17128" lon="0.27208">
        <ele>-0.89485972568082</ele>
        <time>2011-12-01 15:16:27</time>
      </trkpt>
      <trkpt lat="45.17095" lon="0.27232">
        <ele>-0.9389317948353</ele>
        <time>2011-12-01 15:16:43</time>
      </trkpt>
      <trkpt lat="45.17064" lon="0.27257">
        <ele>-0.2640533697105</ele>
        <time>2011-12-01 15:18:06</time>
      </trkpt>
      <trkpt lat="45.17027" lon="0.27271">
        <ele>-0.35413984150603</ele>
        <time>2011-12-01 15:21:50</time>
      </trkpt>
      <trkpt lat="45.16995" lon="0.27298">
        <ele>-0.38329160286867</ele>
        <time>2011-12-01 15:21:59</time>
      </trkpt>
      <trkpt lat="45.16973" lon="0.27341">
        <ele>-0.34384382283122</ele>
        <time>2011-12-01 15:22:11</time>
      </trkpt>
      <trkpt lat="45.1697" lon="0.27393">
        <ele>-0.92152454418545</ele>
        <time>2011-12-01 15:22:24</time>
      </trkpt>
      <trkpt lat="45.16933" lon="0.27408">
        <ele>-1.0088688550894</ele>
        <time>2011-12-01 15:22:35</time>
      </trkpt>
      <trkpt lat="45.16899" lon="0.27423">
        <ele>-1.0754574401465</ele>
        <time>2011-12-01 15:22:49</time>
      </trkpt>
      <trkpt lat="45.16872" lon="0.27461">
        <ele>-1.0645185003057</ele>
        <time>2011-12-01 15:23:06</time>
      </trkpt>
      <trkpt lat="45.16836" lon="0.27478">
        <ele>-0.43287210089545</ele>
        <time>2011-12-01 15:23:29</time>
      </trkpt>
      <trkpt lat="45.16806" lon="0.27511">
        <ele>-0.44002487113539</ele>
        <time>2011-12-01 15:23:47</time>
      </trkpt>
      <trkpt lat="45.16774" lon="0.27535">
        <ele>-0.48122074406751</ele>
        <time>2011-12-01 15:24:05</time>
      </trkpt>
      <trkpt lat="45.16743" lon="0.27562">
        <ele>-0.50644070257374</ele>
        <time>2011-12-01 15:24:24</time>
      </trkpt>
      <trkpt lat="45.16718" lon="0.27599">
        <ele>-1.2020444203122</ele>
        <time>2011-12-01 15:24:43</time>
      </trkpt>
      <trkpt lat="45.16693" lon="0.27638">
        <ele>-1.1674210383129</ele>
        <time>2011-12-01 15:25:02</time>
      </trkpt>
      <trkpt lat="45.16663" lon="0.27668">
        <ele>-0.48317993425792</ele>
        <time>2011-12-01 15:26:12</time>
      </trkpt>
      <trkpt lat="45.1664" lon="0.27707">
        <ele>-0.4477815757906</ele>
        <time>2011-12-01 15:27:33</time>
      </trkpt>
      <trkpt lat="45.1662" lon="0.2775">
        <ele>-0.39567609466667</ele>
        <time>2011-12-01 15:30:13</time>
      </trkpt>
      <trkpt lat="45.16588" lon="0.27774">
        <ele>-0.43540361733483</ele>
        <time>2011-12-01 15:30:42</time>
      </trkpt>
      <trkpt lat="45.16551" lon="0.27776">
        <ele>-0.54947789210041</ele>
        <time>2011-12-01 15:31:07</time>
      </trkpt>
      <trkpt lat="45.16514" lon="0.27776">
        <ele>-0.66728374193985</ele>
        <time>2011-12-01 15:31:25</time>
      </trkpt>
      <trkpt lat="45.16484" lon="0.27807">
        <ele>-0.68619412293504</ele>
        <time>2011-12-01 15:31:42</time>
      </trkpt>
      <trkpt lat="45.16456" lon="0.27841">
        <ele>-0.67860368529898</ele>
        <time>2011-12-01 15:32:02</time>
      </trkpt>
      <trkpt lat="45.16425" lon="0.27869">
        <ele>-0.7010631155506</ele>
        <time>2011-12-01 15:32:23</time>
      </trkpt>
      <trkpt lat="45.16394" lon="0.27898">
        <ele>-0.72129460241297</ele>
        <time>2011-12-01 15:32:37</time>
      </trkpt>
      <trkpt lat="45.16362" lon="0.27927">
        <ele>-0.74159495854315</ele>
        <time>2011-12-01 15:32:47</time>
      </trkpt>
      <trkpt lat="45.16333" lon="0.27959">
        <ele>-0.74723491631835</ele>
        <time>2011-12-01 15:32:57</time>
      </trkpt>
      <trkpt lat="45.16292" lon="0.27946">
        <ele>-0.20773325248047</ele>
        <time>2011-12-01 15:33:05</time>
      </trkpt>
      <trkpt lat="45.16256" lon="0.27926">
        <ele>-0.37315782958717</ele>
        <time>2011-12-01 15:33:10</time>
      </trkpt>
      <trkpt lat="45.16221" lon="0.27908">
        <ele>-1.2424564387491</ele>
        <time>2011-12-01 15:33:22</time>
      </trkpt>
      <trkpt lat="45.16182" lon="0.27903">
        <ele>-0.66985561535034</ele>
        <time>2011-12-01 15:33:33</time>
      </trkpt>
      <trkpt lat="45.16144" lon="0.27888">
        <ele>-0.1228086843679</ele>
        <time>2011-12-01 15:33:45</time>
      </trkpt>
      <trkpt lat="45.16109" lon="0.27867">
        <ele>-0.99532135399477</ele>
        <time>2011-12-01 15:33:54</time>
      </trkpt>
    </trkseg>
  </trk>
</gpx>